Aérodrome :
LOGIN :

S'inscrire | Disclaimer

   EN    FR    IT 

 










Légende :    VFR   VFR Marginal   IFR   IFR Intensif   IFR Très Intensif
Visi : 
Plafond : 
>= 8 km
>= 3000ft
5 à 8 km
1000 à 3000 ft
1500m à 5 km
500 à 1000 ft
800 à 1500m
200 à 500 ft
< 800m
< 200 ft
Symboles :   Orages  Brouillard  Fortes neiges  Fortes précipitations  Vent > 20 kt
SIGMETs :   Divers  Orages  Givrage  Turbulence  Onde Orograph.  Cendres Volcan.







- Altitude de l'aérodrome : 194 ft
- Code IATA : LME
- Voir les cartes d'approche


LFRM - Le Mans

DERNIER METAR :
  • 270800Z AUTO 17007KT 130V210 CAVOK 14/06 Q1009 NOSIG

METARs EXPIRÉS :
  • 270730Z AUTO 15006KT 110V190 CAVOK 13/06 Q1009 NOSIG
  • 270700Z AUTO VRB02KT CAVOK 11/06 Q1010 NOSIG
  • 270630Z AUTO VRB01KT CAVOK 09/05 Q1010 NOSIG
  • 270600Z AUTO 08002KT CAVOK 07/05 Q1010 NOSIG
  • 270530Z AUTO VRB01KT CAVOK 06/04 Q1010
  • 270500Z AUTO 09002KT CAVOK 06/04 Q1011

TAF AMD TAF LFRM
Valide du 27 à 06h jusqu'au 28 à 06h UTC


270527Z 2706/2806 16005KT CAVOK
BECMG 2710/2712 21015G25KT
TEMPO 2713/2718 23017G30KT
TEMPO 2718/2804 4000 -SHRA
BECMG 2721/2724 22010KT
Pas de NOTAMs connus pour ce terrain.



MET'MAP, la Météo Aéronautique d'un coup d'oeil ! - Copyright ORBIFLY Décembre 2007 - Disclaimer

ORBIFLY MET'MAP TEAM :

Programmation & Développement : Alexandra Zaïnal
Conception & Développement : Baudouin d'Aumeries
Co-Programmation & Développement : Marc-Olivier Méhu
Soutien technique & logistique : Manuel Goepfert

Contact : metmap@orbifly.com




SOURCES & CREDITS :

   NOAA